METAR Data
IDs: Format: Raw Decoded Include TAF

Data at: 0113 UTC 14 May 2021

K1V6 140055Z AUTO 04004KT 10SM SCT120 21/03 A3009 RMK AO2
K1V6 140035Z AUTO 11005KT 10SM SCT120 21/03 A3008 RMK AO2
K1V6 140015Z AUTO 08006KT 10SM CLR 22/03 A3009 RMK AO2
K1V6 132355Z AUTO 07005KT 10SM CLR 22/03 A3009 RMK AO2
K1V6 132335Z AUTO 10010KT 10SM CLR 22/03 A3008 RMK AO2
K1V6 132315Z AUTO 07008KT 10SM CLR 22/03 A3009 RMK AO2
K1V6 132255Z AUTO 09010KT 10SM SCT120 22/03 A3009 RMK AO2
K1V6 132235Z AUTO 11011KT 10SM SCT120 22/03 A3009 RMK AO2
K1V6 132215Z AUTO 08010KT 10SM SCT120 22/03 A3010 RMK AO2
K1V6 132155Z AUTO 09012KT 10SM CLR 22/05 A3010 RMK AO2
K1V6 132135Z AUTO 09011G20KT 10SM SCT100 SCT120 22/06 A3010 RMK AO2
K1V6 132115Z AUTO 07008G14KT 7SM SCT120 23/05 A3012 RMK AO2
K1V6 132055Z AUTO 12009KT 10SM SCT110 22/01 A3011 RMK AO2
K1V6 132035Z AUTO 11006KT 10SM CLR 23/01 A3012 RMK AO2
K1V6 132015Z AUTO 11009KT 081V141 10SM CLR 22/02 A3012 RMK AO2
K1V6 131955Z AUTO 12009G14KT 10SM CLR 22/04 A3013 RMK AO2
K1V6 131935Z AUTO 12010KT 10SM CLR 22/05 A3014 RMK AO2
K1V6 131915Z AUTO 10009KT 10SM CLR 22/06 A3015 RMK AO2
K1V6 131855Z AUTO 12008G16KT 10SM CLR 21/05 A3015 RMK AO2
K1V6 131835Z AUTO 09011KT 10SM CLR 21/05 A3016 RMK AO2
K1V6 131815Z AUTO 11009KT 10SM CLR 20/05 A3017 RMK AO2
K1V6 131755Z AUTO 11007KT 10SM CLR 19/05 A3019 RMK AO2
K1V6 131735Z AUTO 10007KT 10SM CLR 20/06 A3020 RMK AO2
K1V6 131715Z AUTO 12006KT 10SM CLR 18/05 A3020 RMK AO2
K1V6 131655Z AUTO 10006KT 10SM CLR 17/05 A3020 RMK AO2
K1V6 131635Z AUTO 11006KT 10SM CLR 17/05 A3021 RMK AO2
K1V6 131615Z AUTO 00000KT 10SM CLR 16/04 A3021 RMK AO2
K1V6 131555Z AUTO 26003KT 10SM CLR 16/04 A3022 RMK AO2
K1V6 131535Z AUTO 26006KT 10SM CLR 15/04 A3023 RMK AO2
K1V6 131515Z AUTO 26007KT 10SM CLR 14/04 A3024 RMK AO2
K1V6 131455Z AUTO 27007KT 10SM CLR 13/03 A3024 RMK AO2
K1V6 131435Z AUTO 28010KT 10SM CLR 14/05 A3025 RMK AO2
K1V6 131415Z AUTO 27009KT 10SM CLR 12/04 A3025 RMK AO2
K1V6 131355Z AUTO 28009KT 10SM CLR 11/04 A3026 RMK AO2
K1V6 131335Z AUTO 29006KT 10SM CLR 10/06 A3026 RMK AO2
K1V6 131315Z AUTO 00000KT 7SM CLR 07/07 A3026 RMK AO2
K1V6 131255Z AUTO 00000KT 4SM BR CLR 07/07 A3026 RMK AO2
K1V6 131235Z AUTO 00000KT 5SM BR CLR 06/05 A3026 RMK AO2
K1V6 131215Z AUTO 00000KT 4SM BR CLR 05/05 A3026 RMK AO2
K1V6 131155Z AUTO 04003KT 7SM CLR 05/05 A3025 RMK AO2
K1V6 131135Z AUTO 06003KT 5SM BR CLR 06/05 A3025 RMK AO2
K1V6 131115Z AUTO 11004KT 10SM CLR 06/05 A3026 RMK AO2
K1V6 131055Z AUTO 00000KT 10SM CLR 06/05 A3027 RMK AO2
K1V6 131035Z AUTO 00000KT 10SM CLR 07/06 A3027 RMK AO2
K1V6 131015Z AUTO 00000KT 10SM CLR 07/06 A3027 RMK AO2
K1V6 130955Z AUTO 26004KT 10SM SCT043 07/06 A3027 RMK AO2
K1V6 130935Z AUTO 29005KT 10SM BKN043 07/06 A3028 RMK AO2
K1V6 130915Z AUTO 28005KT 10SM OVC045 08/07 A3028 RMK AO2
K1V6 130855Z AUTO 00000KT 10SM OVC045 08/07 A3029 RMK AO2
K1V6 130835Z AUTO 00000KT 10SM OVC045 09/07 A3029 RMK AO2
K1V6 130815Z AUTO 00000KT 10SM OVC045 10/07 A3029 RMK AO2
K1V6 130755Z AUTO 00000KT 10SM OVC045 10/07 A3030 RMK AO2
K1V6 130735Z AUTO 16003KT 10SM OVC045 10/07 A3031 RMK AO2
K1V6 130715Z AUTO 00000KT 10SM OVC045 11/07 A3031 RMK AO2
K1V6 130655Z AUTO 08003KT 10SM OVC043 11/07 A3031 RMK AO2
K1V6 130635Z AUTO 07004KT 10SM SCT037 OVC043 11/07 A3032 RMK AO2
K1V6 130615Z AUTO 06005KT 10SM BKN036 OVC045 11/07 A3032 RMK AO2
K1V6 130555Z AUTO 07003KT 10SM OVC036 11/06 A3032 RMK AO2
K1V6 130535Z AUTO 07004KT 10SM OVC039 11/06 A3031 RMK AO2
K1V6 130515Z AUTO 08004KT 10SM SCT035 OVC045 11/06 A3032 RMK AO2
K1V6 130455Z AUTO 08004KT 10SM OVC045 11/06 A3032 RMK AO2
K1V6 130435Z AUTO 09003KT 10SM OVC043 12/06 A3032 RMK AO2
K1V6 130415Z AUTO 10003KT 10SM OVC043 12/05 A3031 RMK AO2
K1V6 130355Z AUTO 11003KT 10SM OVC041 12/05 A3031 RMK AO2
K1V6 130335Z AUTO 13005KT 10SM OVC041 12/05 A3031 RMK AO2
K1V6 130315Z AUTO 12006KT 10SM OVC043 12/05 A3030 RMK AO2
K1V6 130255Z AUTO 12006KT 10SM OVC043 12/05 A3029 RMK AO2
K1V6 130235Z AUTO 13006KT 10SM OVC041 12/05 A3028 RMK AO2
K1V6 130215Z AUTO 14006KT 10SM OVC041 12/05 A3027 RMK AO2
K1V6 130155Z AUTO 12007KT 10SM OVC041 13/05 A3026 RMK AO2
K1V6 130135Z AUTO 10007KT 10SM OVC041 13/05 A3025 RMK AO2
K1V6 130115Z AUTO 10006KT 10SM OVC041 13/04 A3025 RMK AO2
K1V6 130055Z AUTO 10006KT 10SM OVC043 13/04 A3024 RMK AO2
K1V6 130035Z AUTO 10010KT 10SM OVC043 13/03 A3024 RMK AO2
K1V6 130015Z AUTO 09007KT 10SM OVC041 14/03 A3024 RMK AO2
K1V6 122355Z AUTO 10010G14KT 10SM OVC043 15/03 A3024 RMK AO2
K1V6 122335Z AUTO 08008KT 10SM OVC043 15/03 A3023 RMK AO2
K1V6 122315Z AUTO 06011G15KT 10SM OVC043 15/04 A3023 RMK AO2
K1V6 122255Z AUTO 07010G14KT 10SM OVC041 15/04 A3023 RMK AO2
K1V6 122235Z AUTO 09010G14KT 10SM OVC041 15/04 A3023 RMK AO2
K1V6 122215Z AUTO 09010KT 10SM BKN041 15/03 A3023 RMK AO2
K1V6 122155Z AUTO 09009G15KT 10SM OVC039 15/04 A3024 RMK AO2
K1V6 122135Z AUTO 08010G14KT 10SM BKN039 16/04 A3024 RMK AO2
K1V6 122115Z AUTO 07010KT 10SM BKN037 15/04 A3025 RMK AO2
K1V6 122055Z AUTO 04004G14KT 10SM SCT037 15/03 A3025 RMK AO2
K1V6 122035Z AUTO 08006G14KT 10SM SCT035 15/03 A3026 RMK AO2
K1V6 122015Z AUTO 09012G15KT 10SM SCT033 14/03 A3027 RMK AO2
K1V6 121955Z AUTO 09013KT 10SM SCT033 14/03 A3027 RMK AO2
K1V6 121935Z AUTO 11012G18KT 10SM SCT033 14/04 A3027 RMK AO2
K1V6 121915Z AUTO 10007G15KT 10SM SCT033 13/03 A3028 RMK AO2
K1V6 121855Z AUTO 13009KT 10SM SCT033 13/03 A3028 RMK AO2
K1V6 121835Z AUTO 11012G18KT 10SM SCT031 13/03 A3028 RMK AO2
K1V6 121815Z AUTO 00000KT 10SM SCT031 12/03 A3028 RMK AO2
K1V6 121755Z AUTO 08007KT 10SM SCT031 12/03 A3029 RMK AO2
K1V6 121735Z AUTO 11005KT 10SM SCT029 12/03 A3030 RMK AO2
K1V6 121715Z AUTO 12005KT 10SM SCT029 11/03 A3030 RMK AO2
K1V6 121655Z AUTO 00000KT 10SM BKN029 11/03 A3030 RMK AO2
K1V6 121635Z AUTO 17005KT 10SM OVC029 11/03 A3030 RMK AO2
K1V6 121615Z AUTO 18004KT 10SM OVC027 10/03 A3031 RMK AO2
K1V6 121555Z AUTO 00000KT 10SM SCT014 BKN029 09/03 A3031 RMK AO2
K1V6 121535Z AUTO 00000KT 10SM SCT014 SCT034 08/05 A3031 RMK AO2
K1V6 121515Z AUTO 00000KT 10SM BKN012 OVC034 08/05 A3032 RMK AO2
K1V6 121455Z AUTO 00000KT 10SM BKN012 OVC034 07/05 A3033 RMK AO2
K1V6 121435Z AUTO 00000KT 10SM BKN010 BKN015 OVC036 07/05 A3033 RMK AO2
K1V6 121415Z AUTO 00000KT 10SM OVC008 06/05 A3033 RMK AO2
K1V6 121355Z AUTO 00000KT 10SM BKN008 OVC035 06/05 A3033 RMK AO2
K1V6 121335Z AUTO 00000KT 10SM SCT006 OVC035 05/04 A3033 RMK AO2
K1V6 121315Z AUTO 00000KT 10SM OVC035 05/04 A3032 RMK AO2